Date,TemperatureHighF,TemperatureAvgF,TemperatureLowF,DewpointHighF,DewpointAvgF,DewpointLowF,HumidityHigh,HumidityAvg,HumidityLow,PressureMaxIn,PressureMinIn,WindSpeedMaxMPH,WindSpeedAvgMPH,GustSpeedMaxMPH,PrecipitationSumIn
2014-4-17,37.1,36.8,36.6,29.0,27.6,27.0,73,70,67,30.74,30.67,9,6,15,0.00
2014-4-18,44.4,39.4,32.8,36.0,31.7,28.0,84,74,65,30.67,30.26,12,4,18,0.00
2014-4-19,61.7,49.8,38.4,37.0,32.6,26.0,87,56,31,30.42,30.17,20,6,23,0.00
2014-4-20,52.2,46.2,41.7,35.0,28.0,17.0,73,51,26,30.54,30.35,10,4,19,0.00
2014-4-21,70.8,53.5,38.6,41.0,32.2,24.0,77,50,20,30.34,29.85,16,4,16,0.00
2014-4-22,73.8,59.2,47.9,52.0,43.8,40.0,91,60,32,29.85,29.48,18,5,23,0.06
2014-4-23,55.5,51.8,46.8,52.0,45.0,34.0,93,79,56,29.61,29.43,18,7,35,0.18
2014-4-24,56.9,49.3,42.0,34.0,26.5,20.0,61,42,29,29.92,29.60,31,12,41,0.00
2014-4-25,64.1,52.7,44.1,38.0,30.0,23.0,55,43,22,30.02,29.84,10,3,17,0.00
2014-4-26,49.9,45.8,43.6,42.0,39.3,34.0,92,79,55,29.88,29.79,11,2,13,0.18
2014-4-27,49.9,45.8,42.3,43.0,40.9,39.0,91,83,75,30.05,29.86,17,2,17,0.08
2014-4-28,54.6,48.2,42.2,42.0,38.7,36.0,81,70,56,30.24,30.00,16,5,26,0.00
2014-4-29,46.0,43.0,42.1,40.0,36.8,35.0,85,79,75,30.53,30.24,19,8,34,0.00
2014-4-30,45.3,42.9,41.9,42.0,38.8,36.0,96,85,78,30.55,30.18,18,6,20,0.23
2014-5-1,62.7,53.7,43.3,58.0,51.6,42.0,98,93,77,30.17,29.66,7,2,11,0.53
2014-5-2,67.4,60.6,53.7,56.0,41.6,35.0,94,52,31,29.81,29.65,21,6,30,0.00
2014-5-3,66.5,60.1,51.6,43.0,41.0,39.0,65,50,39,29.87,29.72,10,4,17,0.00
2014-5-4,60.1,55.4,49.7,46.0,40.1,35.0,76,57,42,29.72,29.54,22,10,43,0.00
2014-5-5,64.7,56.5,49.9,44.0,41.1,39.0,73,58,41,29.85,29.61,19,8,27,0.00
2014-5-6,61.8,55.0,47.2,40.0,35.8,28.0,73,51,29,30.03,29.83,18,6,26,0.00
2014-5-7,68.6,57.9,47.4,40.0,31.8,24.0,51,39,19,30.18,30.04,13,4,20,0.00
2014-5-8,67.2,59.2,52.0,54.0,39.7,32.0,81,50,32,30.20,30.09,10,2,17,0.00
2014-5-9,59.7,56.3,52.6,55.0,51.8,49.0,92,85,72,30.25,30.09,7,1,9,0.00
2014-5-10,80.8,68.3,59.9,64.0,61.1,55.0,95,80,46,30.08,29.75,16,5,32,0.21
2014-5-11,79.8,70.7,62.7,61.0,40.8,29.0,86,39,16,30.02,29.78,26,8,30,0.01
2014-5-12,86.4,74.0,58.1,58.0,44.4,39.0,67,36,20,30.12,29.95,15,6,27,0.00
2014-5-13,55.8,50.2,47.4,46.0,42.2,37.0,82,74,64,30.34,30.13,17,5,31,0.00
2014-5-14,67.0,55.9,47.7,55.0,47.9,42.0,84,75,56,30.35,30.25,12,2,16,0.00
2014-5-15,79.4,68.4,61.0,64.0,60.6,55.0,92,77,54,30.30,30.21,14,3,18,0.00
2014-5-16,74.9,67.6,64.4,64.0,62.5,60.0,95,84,66,30.20,29.98,11,3,19,0.19
2014-5-17,75.6,67.6,60.3,64.0,52.7,37.0,96,64,27,30.06,29.86,21,7,26,0.48
2014-5-18,67.8,60.1,52.1,48.0,42.8,38.0,66,54,45,30.11,30.02,13,3,15,0.00
2014-5-19,65.4,58.0,52.0,48.0,38.7,34.0,83,50,32,30.09,30.00,15,7,37,0.06
2014-5-20,72.5,61.5,52.6,50.0,46.3,41.0,84,59,38,30.02,29.95,14,4,21,0.02
2014-5-21,65.8,61.5,56.0,54.0,50.5,47.0,77,68,59,30.01,29.94,11,2,21,0.00
2014-5-22,60.4,57.0,54.5,56.0,52.7,50.0,95,85,71,29.97,29.88,10,2,15,0.13
2014-5-23,59.7,55.8,52.9,55.0,51.9,49.0,94,86,72,29.99,29.88,12,3,19,0.03
2014-5-24,65.5,57.6,52.3,50.0,48.9,45.0,90,74,53,30.05,29.96,10,4,15,0.00
2014-5-27,56.4,53.7,49.5,53.0,50.3,48.0,94,88,82,29.96,29.90,17,6,22,0.25
2014-5-28,50.5,49.1,45.9,49.0,46.5,41.0,95,90,79,30.22,29.90,18,7,25,0.05
2014-5-29,62.4,54.5,44.3,47.0,42.1,32.0,93,65,39,30.25,30.16,9,3,14,0.00
2014-5-30,74.1,59.0,48.2,56.0,49.2,45.0,87,72,43,30.16,29.99,9,2,11,0.14
2014-5-31,61.4,56.3,52.3,51.0,47.4,34.0,91,73,39,30.29,30.05,15,4,18,0.00
2014-6-1,71.9,63.5,52.6,50.0,45.1,35.0,80,53,35,30.35,30.24,12,3,15,0.00
2014-6-2,84.5,69.9,55.6,55.0,49.1,45.0,67,50,27,30.24,30.00,11,4,18,0.00
2014-6-3,78.5,68.4,59.2,59.0,54.8,46.0,79,63,48,30.02,29.90,12,3,19,0.00
2014-6-4,63.8,60.0,56.2,57.0,53.8,48.0,91,81,59,29.91,29.79,9,2,12,0.13
2014-6-5,61.9,60.1,58.3,60.0,58.2,57.0,96,93,88,29.80,29.64,12,2,19,0.48
2014-6-6,75.4,65.9,57.4,57.0,55.0,53.0,95,70,46,29.87,29.69,14,6,24,0.00
2014-6-7,84.5,73.1,60.2,59.0,55.3,54.0,79,56,35,29.93,29.86,12,4,16,0.00
2014-6-8,85.0,77.0,67.2,61.0,57.0,55.0,67,51,36,29.95,29.86,9,3,12,0.00
2014-6-9,79.4,71.6,66.7,62.0,57.3,53.0,77,61,43,29.99,29.90,13,5,20,0.00
2014-6-10,80.6,68.1,61.3,69.0,62.8,56.0,92,83,64,30.11,29.92,17,4,24,0.21
2014-6-11,68.4,62.1,59.4,56.0,55.1,53.0,86,78,64,30.21,30.11,11,4,18,0.00
2014-6-12,67.2,63.1,59.5,60.0,57.1,54.0,87,81,74,30.17,30.07,12,4,17,0.00
2014-6-13,65.5,62.0,59.7,64.0,60.2,58.0,97,94,82,30.07,29.79,11,3,15,0.40
2014-6-14,76.4,66.3,59.9,65.0,60.3,53.0,96,82,63,29.90,29.81,11,3,19,0.01
2014-6-15,78.9,68.9,58.1,57.0,53.5,50.0,82,60,40,30.05,29.90,16,7,23,0.00
2014-6-16,76.9,70.1,61.9,57.0,50.8,46.0,64,52,39,30.15,30.02,12,4,15,0.00
2014-6-17,87.1,74.3,61.6,71.0,63.8,54.0,88,70,58,30.07,29.88,12,4,18,0.17
2014-6-18,85.3,78.3,69.6,67.0,63.9,60.0,89,63,43,29.93,29.72,27,8,35,0.00
2014-6-19,82.3,75.2,69.3,64.0,54.6,38.0,75,52,25,29.97,29.89,19,6,24,0.00
2014-6-20,75.7,68.3,61.4,49.0,43.8,38.0,60,43,27,29.98,29.88,18,7,23,0.00
2014-6-21,74.9,66.5,58.0,51.0,46.1,42.0,62,49,37,29.97,29.87,13,4,19,0.00
2014-6-22,74.1,67.7,59.8,53.0,48.2,44.0,64,50,40,30.04,29.92,12,3,16,0.00
2014-6-23,80.3,70.5,60.8,58.0,53.8,49.0,79,57,43,30.18,30.04,9,2,20,0.00
2014-6-24,83.8,71.7,60.7,61.0,57.6,53.0,84,63,44,30.18,30.02,15,4,21,0.00
2014-6-25,88.2,76.5,66.7,70.0,65.2,56.0,86,69,50,30.02,29.86,16,6,23,0.00
2014-6-26,78.7,69.8,62.3,71.0,65.4,56.0,96,86,72,30.02,29.79,12,3,18,0.23
2014-6-27,76.8,69.3,61.2,58.0,49.1,39.0,88,53,27,30.21,30.01,11,3,17,0.00
2014-6-28,84.5,74.2,61.4,59.0,51.2,41.0,75,47,25,30.27,30.21,9,2,12,0.00
2014-6-29,89.2,75.6,62.8,59.0,55.3,46.0,80,53,23,30.26,30.10,9,3,17,0.00
2014-6-30,88.4,76.6,64.9,66.0,61.8,56.0,84,62,42,30.11,29.92,15,6,24,0.00
2014-7-1,88.1,79.1,69.2,73.0,67.7,60.0,87,69,58,29.94,29.80,16,7,24,0.00
2014-7-2,92.0,81.5,73.5,75.0,71.6,67.0,85,73,57,29.93,29.79,17,6,25,0.00
2014-7-3,94.1,82.4,69.8,75.0,72.3,67.0,92,73,50,30.02,29.88,13,4,43,0.20
2014-7-4,75.7,69.5,64.3,69.0,66.4,62.0,94,90,76,30.00,29.80,13,4,23,1.33
2014-7-5,80.0,69.9,58.9,63.0,52.6,41.0,94,59,32,30.00,29.77,29,11,36,0.24
2014-7-6,84.6,75.7,65.5,61.0,53.9,48.0,69,48,34,30.01,29.86,21,9,27,0.00
2014-7-7,88.7,77.7,69.4,70.0,65.8,62.0,80,68,50,29.88,29.69,17,7,26,0.01
2014-7-8,92.3,80.8,73.1,71.0,68.6,66.0,85,68,44,29.80,29.69,17,7,25,0.00
2014-7-9,88.9,80.1,73.3,70.0,66.6,62.0,86,65,42,29.94,29.67,15,6,22,0.00
2014-7-10,82.7,76.1,70.4,66.0,58.5,53.0,77,56,40,30.14,29.94,14,5,18,0.00
2014-7-11,77.5,71.9,66.4,63.0,57.3,53.0,81,61,43,30.24,30.14,11,3,15,0.00
2014-7-12,85.7,75.2,63.8,66.0,61.0,58.0,83,63,42,30.23,30.11,8,2,14,0.00
2014-7-13,86.9,76.4,67.4,68.0,63.2,60.0,84,66,41,30.13,29.91,14,5,24,0.00
2014-7-14,86.0,77.1,72.9,74.0,71.0,68.0,95,82,61,29.91,29.86,11,4,18,0.61
2014-7-15,86.2,78.0,73.2,76.0,73.7,71.0,96,87,70,29.87,29.75,12,4,20,0.01
2014-7-16,77.0,74.4,71.6,74.0,71.5,66.0,95,91,81,29.85,29.76,10,3,14,0.76
2014-7-17,81.9,74.0,67.8,65.0,59.0,55.0,80,61,42,30.08,29.86,12,5,19,0.00
2014-7-18,81.5,73.5,65.2,61.0,57.5,54.0,77,59,40,30.23,30.08,7,3,11,0.00
2014-7-19,77.1,70.3,65.9,64.0,61.6,58.0,88,74,59,30.28,30.22,8,2,12,0.00
2014-7-20,74.9,68.7,64.4,63.0,59.2,55.0,89,73,58,30.23,30.16,11,2,15,0.00
2014-7-21,77.1,69.3,61.9,64.0,61.3,58.0,94,77,52,30.21,30.15,8,2,13,0.00
2014-7-22,91.6,77.6,65.9,71.0,66.2,63.0,89,70,46,30.16,30.00,12,3,18,0.00
2014-7-23,91.7,80.4,71.4,74.0,70.1,66.0,83,71,53,29.99,29.74,14,6,24,0.00
2014-7-24,78.5,72.5,67.9,70.0,65.1,62.0,86,77,66,29.91,29.75,14,4,17,0.00
2014-7-25,81.5,72.9,62.1,61.0,56.1,51.0,76,57,41,29.99,29.90,13,5,19,0.00
2014-7-26,84.1,74.1,64.6,65.0,60.3,56.0,82,64,38,29.99,29.88,16,6,24,0.00
2014-7-27,78.8,72.3,67.5,71.0,68.2,64.0,94,87,71,29.91,29.67,11,3,19,0.25
2014-7-28,85.2,75.9,68.9,72.0,68.9,64.0,97,80,60,29.69,29.45,13,4,24,0.58
2014-7-29,77.5,70.5,64.2,64.0,57.9,56.0,86,66,49,29.95,29.56,16,7,22,0.00
2014-7-30,79.6,71.8,63.3,59.0,55.5,49.0,82,59,38,30.05,29.94,12,3,18,0.00
2014-7-31,82.5,73.0,63.5,63.0,59.6,57.0,84,64,47,30.17,30.05,10,4,18,0.00
2014-8-1,86.8,75.0,66.3,70.0,65.3,63.0,89,73,49,30.23,30.17,14,4,18,0.00
2014-8-2,73.1,68.2,62.9,67.0,62.8,58.0,90,82,74,30.24,30.13,9,2,13,0.02
2014-8-3,73.4,67.0,63.6,64.0,61.3,60.0,91,82,68,30.15,30.06,8,2,10,0.00
2014-8-4,84.8,74.1,65.4,69.0,65.8,63.0,95,77,52,30.06,29.99,9,2,14,0.00
2014-8-5,87.1,78.4,69.7,69.0,67.2,63.0,91,70,50,30.03,29.89,13,3,13,0.00
2014-8-6,82.0,75.8,70.6,67.0,61.5,52.0,81,63,36,29.88,29.78,11,4,18,0.00
2014-8-7,77.2,70.0,64.7,60.0,56.1,53.0,72,62,47,29.95,29.84,11,4,23,0.11
2014-8-8,82.8,71.8,60.6,58.0,55.4,53.0,82,59,36,30.02,29.94,12,5,22,0.00
2014-8-9,82.9,74.3,65.7,62.0,58.2,54.0,73,58,39,30.09,30.01,10,3,13,0.00
2014-8-10,87.7,75.4,67.9,61.0,57.9,54.0,72,56,34,30.14,30.08,10,2,14,0.00
2014-8-11,88.1,75.0,66.1,64.0,60.5,58.0,80,62,40,30.16,30.10,9,2,16,0.00
2014-8-12,85.0,74.5,66.2,65.0,61.9,53.0,87,67,35,30.13,30.04,10,3,19,0.00
2014-8-13,70.9,67.1,64.0,70.0,65.0,62.0,97,93,83,30.03,29.61,17,4,19,1.11
2014-8-14,74.5,67.6,61.5,62.0,54.8,49.0,94,66,42,29.88,29.67,20,9,26,0.00
2014-8-15,72.2,66.1,62.6,58.0,53.8,51.0,83,65,47,29.94,29.84,15,5,22,0.00
2014-8-16,76.8,68.7,59.9,59.0,54.3,52.0,80,62,42,29.98,29.91,14,6,24,0.00
2014-8-17,78.4,71.2,64.4,63.0,59.6,55.0,90,68,52,29.92,29.76,16,5,20,0.00
2014-8-18,77.6,68.8,61.6,56.0,53.1,49.0,79,59,37,29.89,29.79,15,6,21,0.00
2014-8-19,76.5,67.3,59.3,57.0,53.5,51.0,74,62,47,29.96,29.87,9,3,12,0.00
2014-8-20,79.1,68.8,62.0,62.0,58.3,54.0,86,70,46,30.07,29.96,9,2,14,0.00
2014-8-21,74.4,68.3,62.8,65.0,62.5,59.0,89,82,70,30.11,30.05,10,2,13,0.00
2014-8-22,71.2,67.3,62.6,65.0,62.6,60.0,93,85,74,30.11,30.07,13,4,16,0.16
2014-8-23,72.7,66.9,61.2,62.0,58.3,53.0,91,75,60,30.14,30.09,13,4,18,0.00
2014-8-24,81.1,71.6,63.3,58.0,56.0,54.0,77,59,42,30.16,30.11,7,2,12,0.00
2014-8-25,84.5,75.2,67.2,65.0,61.1,58.0,79,63,44,30.16,30.10,10,2,12,0.00
2014-8-26,91.1,75.8,65.3,67.0,64.3,62.0,90,70,40,30.17,30.03,11,2,14,0.00
2014-8-27,88.8,77.5,66.8,71.0,65.8,60.0,88,68,52,30.05,29.84,15,5,23,0.03
2014-8-28,78.4,73.4,65.1,70.0,57.6,49.0,88,60,38,29.99,29.79,20,6,24,0.00
2014-8-29,72.0,65.3,60.0,58.0,54.3,50.0,80,68,56,30.29,29.99,11,4,18,0.00
2014-8-30,79.2,68.2,58.6,62.0,57.3,54.0,89,70,44,30.32,30.14,13,3,17,0.00
2014-8-31,84.0,75.6,66.3,74.0,69.5,61.0,95,81,69,30.14,29.95,16,6,27,0.37
2014-9-1,86.9,78.7,71.2,73.0,70.6,68.0,95,78,56,29.99,29.90,10,3,17,0.00
2014-9-2,91.2,80.4,72.7,75.0,72.2,70.0,93,78,52,29.94,29.74,13,4,25,0.04
2014-9-3,82.9,76.5,71.2,72.0,62.7,55.0,87,64,39,30.09,29.70,15,7,23,0.00
2014-9-4,85.9,75.7,65.8,63.0,59.1,53.0,78,58,37,30.20,30.08,13,4,16,0.00
2014-9-5,89.3,78.1,68.7,72.0,67.0,62.0,87,70,50,30.16,29.98,16,5,21,0.00
2014-9-6,90.2,80.0,70.6,75.0,71.6,63.0,88,76,57,29.98,29.74,20,8,43,0.06
2014-9-7,74.1,68.8,65.1,63.0,58.3,45.0,87,70,39,30.21,29.92,17,3,19,0.13
2014-9-8,72.3,66.3,63.0,58.0,55.4,51.0,77,68,59,30.39,30.21,14,4,22,0.00
2014-9-9,70.0,65.5,63.3,60.0,55.9,52.0,87,72,54,30.37,30.20,14,4,18,0.00
2014-9-10,71.6,64.8,59.9,62.0,60.1,58.0,95,85,66,30.20,30.05,9,3,16,0.00
2014-9-11,79.2,70.7,63.7,69.0,64.2,60.0,91,80,66,30.05,29.78,15,4,24,0.00
2014-9-12,69.3,63.8,57.3,59.0,52.5,48.0,81,67,51,30.24,29.90,15,4,20,0.00
2014-9-13,67.1,60.2,53.4,59.0,53.4,48.0,94,79,63,30.29,30.11,12,4,19,0.14
2014-9-14,65.4,58.4,52.5,57.0,48.3,44.0,94,71,48,30.24,30.11,14,5,20,0.00
2014-9-15,65.6,57.1,48.2,50.0,45.9,43.0,83,68,48,30.25,30.11,16,3,19,0.00
2014-9-16,64.7,60.6,55.7,56.0,52.9,48.0,84,76,64,30.11,29.96,10,2,13,0.00
2014-9-17,73.4,62.8,54.0,55.0,50.5,47.0,88,66,42,30.03,29.94,11,2,12,0.00
2014-9-18,73.5,62.9,53.0,52.0,48.2,42.0,80,60,41,30.16,29.94,11,4,24,0.00
2014-9-19,57.4,52.6,46.8,42.0,37.4,34.0,69,57,45,30.43,30.16,13,4,17,0.00
2014-9-20,72.3,60.5,47.0,57.0,48.8,37.0,81,66,53,30.41,30.10,18,3,22,0.00
2014-9-21,82.8,71.9,62.5,70.0,65.5,57.0,95,80,63,30.10,29.55,10,1,15,0.07
2014-9-22,70.4,65.4,53.7,69.0,53.0,41.0,96,66,42,30.09,29.53,25,10,36,0.01
2014-9-23,70.4,59.3,48.6,51.0,44.2,40.0,76,59,42,30.43,30.10,11,4,21,0.00
2014-9-24,66.8,61.2,57.0,56.0,53.0,50.0,80,74,66,30.64,30.44,11,3,17,0.00
2014-9-25,61.8,59.8,56.0,54.0,52.3,51.0,83,76,72,30.56,30.26,8,2,12,0.00
2014-9-26,72.1,63.7,56.2,55.0,52.8,49.0,83,69,54,30.25,30.15,9,2,11,0.00
2014-9-27,85.7,71.6,61.3,61.0,57.1,54.0,82,63,37,30.19,30.12,9,2,11,0.00
2014-9-28,86.8,73.9,61.8,64.0,61.5,59.0,89,67,43,30.17,29.98,11,3,16,0.00
2014-9-29,74.8,66.3,58.0,62.0,59.9,56.0,94,81,58,30.03,29.95,13,4,18,0.00
2014-9-30,58.1,57.2,56.5,56.0,55.1,54.0,94,92,91,30.06,30.00,10,4,16,0.15
2014-10-1,58.6,57.9,57.1,57.0,56.2,55.0,95,94,91,30.11,30.02,17,5,25,0.83
2014-10-2,57.4,55.9,53.3,56.0,53.0,49.0,95,90,81,30.18,30.10,17,5,23,0.16
2014-10-3,57.1,54.1,50.6,54.0,50.5,48.0,96,88,81,30.15,29.91,13,4,15,0.00
2014-10-4,65.0,59.2,54.6,64.0,57.9,54.0,98,95,90,29.91,29.54,9,2,15,0.16
2014-10-5,63.8,55.9,49.5,62.0,43.3,35.0,94,66,39,29.96,29.55,21,8,24,0.00
2014-10-6,67.9,56.2,44.0,52.0,43.1,36.0,83,64,39,30.16,29.96,10,3,17,0.00
2014-10-7,74.9,65.2,56.2,62.0,57.4,52.0,92,77,49,30.16,29.98,12,3,25,0.00
2014-10-8,72.3,67.2,59.3,64.0,55.2,44.0,93,68,43,29.98,29.70,22,6,28,0.00
2014-10-9,65.2,58.3,50.0,44.0,38.8,34.0,67,50,36,30.00,29.87,18,7,28,0.00
2014-10-10,61.6,56.5,50.6,42.0,39.1,37.0,65,53,45,30.14,30.00,17,6,22,0.00
2014-10-11,56.0,51.0,47.9,47.0,43.8,38.0,92,77,52,30.14,30.07,10,3,14,0.31
2014-10-12,62.7,52.5,45.2,45.0,41.8,40.0,91,69,47,30.32,30.13,11,3,16,0.00
2014-10-13,63.9,55.2,45.3,55.0,47.3,41.0,85,75,63,30.37,30.26,8,2,16,0.00
2014-10-14,78.0,68.2,60.4,65.0,61.5,55.0,91,80,60,30.26,30.16,16,3,21,0.00
2014-10-15,81.1,71.4,64.2,68.0,65.2,62.0,92,82,58,30.17,29.98,12,2,21,0.00
2014-10-16,73.2,69.0,63.3,70.0,66.9,62.0,95,92,89,29.97,29.68,8,2,16,0.44
2014-10-17,72.7,64.8,59.8,61.0,57.6,53.0,96,79,50,29.71,29.60,19,4,21,0.00
2014-10-18,71.3,63.0,57.3,61.0,57.2,50.0,95,82,64,29.68,29.49,14,5,19,0.00
2014-10-19,57.1,51.3,44.4,50.0,38.2,26.0,77,62,49,29.96,29.60,22,7,31,0.00
2014-10-20,56.7,47.5,37.4,42.0,32.1,26.0,72,56,39,30.07,29.96,20,6,21,0.00
2014-10-21,63.7,56.9,51.0,57.0,52.0,42.0,93,83,72,30.01,29.91,13,2,17,0.02
2014-10-22,55.6,52.4,50.7,55.0,50.6,49.0,96,93,90,30.03,29.79,19,8,42,0.49
2014-10-23,54.9,52.3,49.9,53.0,50.6,49.0,96,93,90,29.78,29.59,29,10,39,1.61
2014-10-24,53.6,50.7,48.2,49.0,46.9,43.0,96,87,77,29.75,29.66,16,7,21,0.11
2014-10-25,65.0,55.3,47.0,48.0,43.7,40.0,86,67,42,29.77,29.50,14,6,19,0.00
2014-10-26,57.9,53.9,47.3,48.0,42.4,38.0,75,66,48,29.71,29.45,21,9,31,0.00
2014-10-27,62.7,53.3,44.5,42.0,40.5,39.0,82,63,43,30.03,29.71,24,8,27,0.00
2014-10-28,61.7,55.5,47.5,57.0,47.8,41.0,92,76,62,30.09,29.94,8,1,11,0.00
2014-10-29,74.9,61.4,53.5,62.0,55.1,45.0,94,81,55,29.94,29.75,17,3,25,0.02
2014-10-30,57.4,52.1,46.1,49.0,41.1,38.0,83,67,50,30.00,29.88,12,5,20,0.01
2014-10-31,54.0,50.2,47.3,40.0,38.9,37.0,74,66,59,30.05,29.96,15,4,19,0.00
2014-11-1,49.7,44.1,39.3,44.0,39.1,35.0,93,83,62,29.95,29.78,23,9,30,0.51
2014-11-2,41.6,39.1,33.9,37.0,29.6,17.0,94,72,40,29.83,29.62,26,11,36,0.18
2014-11-3,52.6,44.2,35.6,32.0,19.4,6.0,53,39,16,30.07,29.83,26,9,35,0.00
2014-11-4,61.6,53.4,45.4,46.0,34.8,29.0,72,50,32,30.14,29.99,9,2,15,0.00
2014-11-5,65.7,58.6,50.9,50.0,42.2,35.0,81,56,40,30.13,29.96,18,5,23,0.00
2014-11-6,53.5,50.4,48.7,49.0,44.1,36.0,95,80,56,30.12,29.50,14,2,18,0.59
2014-11-7,48.6,44.9,39.3,48.0,37.6,27.0,96,77,61,29.79,29.46,23,8,41,0.01
2014-11-8,49.2,41.3,35.2,33.0,26.3,23.0,73,56,38,29.97,29.80,17,6,23,0.00
2014-11-9,56.0,48.3,41.1,38.0,35.4,33.0,73,62,48,30.01,29.88,11,4,16,0.00
2014-11-10,60.6,49.2,39.6,45.0,36.0,32.0,79,62,37,30.21,30.02,10,2,13,0.00
2014-11-11,63.9,54.9,46.4,54.0,48.3,39.0,93,79,62,30.21,29.98,9,1,15,0.00
2014-11-12,62.2,55.1,46.3,57.0,50.1,36.0,95,83,58,30.01,29.85,16,3,21,0.00
2014-11-13,51.5,44.6,38.0,36.0,31.1,27.0,89,60,40,30.09,29.96,13,4,21,0.06
2014-11-14,42.9,37.5,33.1,35.0,27.8,19.0,94,71,40,30.10,29.90,19,8,23,0.22
2014-11-15,39.5,34.1,30.0,25.0,18.8,14.0,74,55,37,30.35,30.10,15,6,22,0.00
2014-11-16,42.7,37.1,29.6,31.0,23.9,19.0,68,59,46,30.40,30.14,9,2,23,0.00
2014-11-17,49.2,42.8,37.6,48.0,40.0,30.0,97,90,64,30.13,29.43,9,2,26,1.47
2014-11-18,42.8,35.2,26.1,42.0,20.2,5.0,95,57,34,29.93,29.46,25,11,38,0.01
2014-11-19,36.1,29.4,23.4,17.0,10.0,6.0,56,45,34,30.15,29.94,18,8,28,0.00
2014-11-20,47.9,37.9,30.9,23.0,20.1,16.0,62,50,35,30.07,29.74,25,7,32,0.00
2014-11-21,34.5,30.4,27.1,18.0,11.8,6.0,62,47,36,30.43,29.92,20,9,33,0.00
2014-11-22,44.7,34.6,23.9,24.0,14.3,7.0,63,45,23,30.43,30.07,19,8,25,0.00
2014-11-23,58.8,49.8,42.3,40.0,33.2,24.0,75,54,47,30.15,30.07,15,4,20,0.00
2014-11-24,65.9,58.8,45.5,64.0,55.1,38.0,95,87,73,30.10,29.58,16,6,23,0.28
2014-11-25,62.6,57.5,48.8,56.0,41.5,27.0,93,59,29,30.12,29.70,16,6,19,0.00
2014-11-26,49.0,40.8,33.2,38.0,33.0,30.0,95,76,48,30.20,29.68,21,6,32,1.42
2014-11-27,38.1,34.5,30.7,33.0,30.7,27.0,95,86,78,30.02,29.68,16,6,24,0.05
2014-11-28,34.7,30.8,27.3,29.0,24.0,18.0,93,76,55,30.22,29.99,18,6,22,0.03
2014-11-29,36.4,29.7,23.7,24.0,17.5,14.0,76,61,44,30.36,30.22,9,3,17,0.00
2014-11-30,57.8,48.2,34.4,45.0,37.9,24.0,83,68,49,30.27,30.03,19,4,25,0.00
2014-12-1,62.8,52.9,40.4,48.0,41.8,27.0,75,67,58,30.44,30.01,16,6,24,0.02
2014-12-2,41.1,37.0,33.4,39.0,26.5,19.0,93,67,54,30.71,30.40,13,6,24,0.13
2014-12-3,51.9,44.5,36.2,49.0,41.7,26.0,97,90,58,30.38,29.88,23,6,36,0.34
2014-12-4,42.9,37.6,31.9,26.0,22.2,15.0,70,55,43,30.55,30.08,20,7,31,0.00
2014-12-5,44.0,36.2,27.0,37.0,25.2,14.0,89,65,50,30.69,30.45,12,3,15,0.13
2014-12-6,45.7,40.3,37.6,45.0,39.0,37.0,96,94,90,30.43,30.15,17,4,19,0.93
2014-12-7,37.9,32.7,21.7,36.0,19.1,-3.0,94,60,28,30.70,30.24,19,9,27,0.09
2014-12-8,29.1,22.8,18.4,27.0,15.2,3.0,92,73,47,30.77,30.51,15,7,22,0.00
2014-12-9,50.1,43.8,29.6,49.0,42.7,28.0,97,95,92,30.51,29.49,36,8,42,2.76
2014-12-10,48.2,41.0,38.0,47.0,39.8,37.0,97,95,90,29.57,29.43,15,7,24,0.14
2014-12-11,37.9,34.8,32.5,37.0,32.2,29.0,100,90,85,29.81,29.44,14,6,21,0.02
2014-12-12,38.0,34.2,30.7,30.0,28.2,27.0,87,79,70,29.89,29.80,12,6,21,0.00
2014-12-13,40.7,35.6,31.9,30.0,28.0,26.0,86,74,63,29.86,29.78,20,7,21,0.00
2014-12-14,45.2,37.3,33.2,31.0,29.0,27.0,81,72,57,29.91,29.78,12,6,19,0.00
2014-12-15,44.6,37.9,33.2,35.0,31.2,29.0,89,77,60,30.15,29.91,10,4,17,0.00
2014-12-16,46.5,41.7,36.4,44.0,36.9,32.0,91,83,71,30.17,29.92,6,1,9,0.00
2014-12-17,48.3,44.6,41.0,47.0,41.5,34.0,96,89,77,29.91,29.68,21,7,26,0.35
2014-12-18,42.9,39.4,35.3,34.0,31.5,29.0,92,74,63,29.86,29.71,21,9,28,0.01
2014-12-19,37.1,34.1,29.3,28.0,24.7,22.0,75,69,63,30.15,29.86,15,6,22,0.00
2014-12-20,37.4,32.3,28.4,31.0,25.5,22.0,85,76,72,30.31,30.15,11,5,15,0.00
2014-12-21,36.7,34.1,31.0,32.0,28.9,26.0,87,81,73,30.37,30.28,12,4,16,0.00
2014-12-22,44.3,39.8,33.8,41.0,34.8,28.0,90,82,75,30.40,30.28,9,3,15,0.01
2014-12-23,46.4,44.6,42.4,46.0,42.9,38.0,97,93,82,30.30,30.16,21,6,21,0.16
2014-12-24,49.0,45.7,41.8,48.0,44.8,41.0,97,97,96,30.15,29.55,11,2,14,0.35
2014-12-25,61.2,52.3,44.5,61.0,43.3,31.0,99,74,49,29.96,29.47,28,9,42,0.13
2014-12-26,48.9,43.6,38.5,33.0,31.2,30.0,73,62,53,30.16,29.97,18,6,22,0.00
2014-12-27,52.5,44.7,39.0,36.0,33.3,30.0,71,65,53,30.22,30.03,12,6,17,0.00
2014-12-28,51.6,46.0,39.7,43.0,36.4,29.0,85,70,59,30.01,29.77,19,7,28,0.01
2014-12-29,40.5,36.7,31.0,29.0,21.9,15.0,69,56,42,30.22,29.99,17,6,22,0.00
2014-12-30,30.8,26.0,22.1,14.0,6.1,-4.0,61,44,27,30.37,30.22,17,6,22,0.00
2014-12-31,29.9,24.0,18.5,10.0,6.5,1.0,62,48,34,30.33,30.13,20,6,25,0.00
2015-1-1,32.6,27.4,21.1,18.0,9.3,7.0,57,47,36,30.13,29.93,13,7,24,0.00
2015-1-2,39.6,34.9,31.9,20.0,17.5,14.0,55,50,43,30.46,29.95,19,8,30,0.00